Time;durP1;ratioP1;P1;durP2;ratioP2;P2;SDS_P1;SDS_P2;PMS_P1;PMS_P2;Temp;Humidity;BMP_temperature;BMP_pressure;BME280_temperature;BME280_humidity;BME280_pressure;Samples;Min_cycle;Max_cycle;Signal;HPM_P1;HPM_P2
2024/02/15 00:00:34;;;;;;;17.67;7.22;;;;;;;9.14;100.00;100819.75;5081830;28;20424;-79
2024/02/15 00:03:08;;;;;;;18.20;7.60;;;;;;;9.16;100.00;100828.44;5076552;28;20417;-78
2024/02/15 00:05:50;;;;;;;17.45;7.30;;;;;;;9.17;100.00;100825.47;5074863;28;20426;-79
2024/02/15 00:08:26;;;;;;;18.98;7.70;;;;;;;9.19;100.00;100823.28;5077195;28;20434;-79
2024/02/15 00:10:54;;;;;;;17.95;7.63;;;;;;;9.14;100.00;100825.16;5078935;28;20408;-79
2024/02/15 00:13:28;;;;;;;19.48;8.40;;;;;;;9.14;100.00;100828.72;5075588;28;20428;-79
2024/02/15 00:16:01;;;;;;;19.98;7.93;;;;;;;9.19;100.00;100834.16;5077249;28;20423;-80
2024/02/15 00:18:36;;;;;;;18.33;8.27;;;;;;;9.26;100.00;100830.38;5073622;28;20418;-79
2024/02/15 00:21:10;;;;;;;18.30;8.18;;;;;;;9.25;100.00;100832.25;5081386;28;20938;-78
2024/02/15 00:23:44;;;;;;;22.97;8.40;;;;;;;9.26;100.00;100835.81;5076921;28;20442;-79
2024/02/15 00:26:12;;;;;;;21.02;8.50;;;;;;;9.23;100.00;100830.94;5074131;28;20414;-78
2024/02/15 00:28:45;;;;;;;19.50;7.63;;;;;;;9.25;100.00;100832.25;5076614;28;20490;-79
2024/02/15 00:31:18;;;;;;;18.20;7.93;;;;;;;9.23;100.00;100831.72;5081891;28;20428;-79
2024/02/15 00:33:48;;;;;;;19.80;7.65;;;;;;;9.26;100.00;100830.38;5075945;28;20419;-78
2024/02/15 00:36:16;;;;;;;19.23;7.73;;;;;;;9.23;100.00;100828.22;5078031;28;20413;-77
2024/02/15 00:38:49;;;;;;;17.77;7.18;;;;;;;9.28;100.00;100817.34;5073632;28;20423;-79
2024/02/15 00:41:18;;;;;;;19.15;8.07;;;;;;;9.30;100.00;100824.13;5075941;28;20866;-79
2024/02/15 00:43:52;;;;;;;19.67;8.00;;;;;;;9.26;100.00;100814.88;5076499;28;20528;-79
2024/02/15 00:46:20;;;;;;;18.73;8.15;;;;;;;9.33;100.00;100820.88;5089612;28;20417;-79
2024/02/15 00:48:55;;;;;;;20.33;8.37;;;;;;;9.35;100.00;100816.00;5074586;28;20418;-79
2024/02/15 00:51:28;;;;;;;20.55;8.60;;;;;;;9.41;100.00;100813.31;5077590;28;20421;-79
2024/02/15 00:54:01;;;;;;;22.37;9.27;;;;;;;9.37;100.00;100821.16;5075725;28;20406;-79
2024/02/15 00:56:31;;;;;;;22.00;9.60;;;;;;;9.41;100.00;100811.41;5077359;28;20439;-79
2024/02/15 00:59:05;;;;;;;23.98;9.57;;;;;;;9.34;100.00;100822.53;5085961;28;20466;-79
2024/02/15 01:01:38;;;;;;;25.00;9.55;;;;;;;9.45;100.00;100823.34;5074099;28;20419;-79
2024/02/15 01:04:08;;;;;;;23.37;10.10;;;;;;;9.42;100.00;100823.06;5078867;28;20888;-79
2024/02/15 01:06:42;;;;;;;24.90;10.10;;;;;;;9.44;100.00;100824.44;5078247;28;20925;-80
2024/02/15 01:09:15;;;;;;;26.20;10.20;;;;;;;9.48;100.00;100811.94;5074199;28;20423;-79
2024/02/15 01:11:48;;;;;;;26.40;10.75;;;;;;;9.44;100.00;100820.91;5082365;28;20421;-79
2024/02/15 01:14:22;;;;;;;28.20;11.02;;;;;;;9.49;100.00;100824.47;5079126;28;20429;-78
2024/02/15 01:16:50;;;;;;;30.80;11.35;;;;;;;9.52;100.00;100829.34;5075881;28;20414;-78
2024/02/15 01:19:24;;;;;;;28.05;11.20;;;;;;;9.51;100.00;100822.31;5075445;28;20419;-80
2024/02/15 01:21:59;;;;;;;27.20;10.82;;;;;;;9.52;100.00;100826.63;5073449;28;20420;-79
2024/02/15 01:24:32;;;;;;;27.90;10.73;;;;;;;9.62;100.00;100820.38;5076118;28;20422;-79
2024/02/15 01:27:01;;;;;;;27.80;10.30;;;;;;;9.55;100.00;100822.56;5075687;28;20448;-79
2024/02/15 01:29:34;;;;;;;24.75;10.45;;;;;;;9.71;100.00;100823.41;5082022;28;21006;-79
2024/02/15 01:32:03;;;;;;;25.90;10.10;;;;;;;9.64;100.00;100825.56;5072140;28;20415;-79
2024/02/15 01:34:37;;;;;;;26.60;10.13;;;;;;;9.56;100.00;100828.84;5073800;28;21085;-79
2024/02/15 01:37:11;;;;;;;24.70;10.10;;;;;;;9.58;100.00;100826.66;5074244;28;20427;-78
2024/02/15 01:39:44;;;;;;;24.63;9.80;;;;;;;9.58;100.00;100830.16;5082404;28;20429;-80
2024/02/15 01:42:17;;;;;;;20.98;8.95;;;;;;;9.56;100.00;100826.13;5091710;28;20428;-79
2024/02/15 01:44:52;;;;;;;21.63;8.48;;;;;;;9.57;100.00;100823.13;5091316;28;20421;-80
2024/02/15 01:47:25;;;;;;;21.45;8.98;;;;;;;9.58;100.00;100821.22;5084505;28;20427;-79
2024/02/15 01:50:00;;;;;;;19.10;7.95;;;;;;;9.59;100.00;100820.13;5077810;28;20420;-80
2024/02/15 01:52:34;;;;;;;21.33;8.40;;;;;;;9.55;100.00;100811.69;5078208;28;20418;-79
2024/02/15 01:55:07;;;;;;;19.77;8.10;;;;;;;9.56;100.00;100817.97;5079286;28;20424;-80
2024/02/15 01:57:45;;;;;;;18.23;7.57;;;;;;;9.63;100.00;100818.50;5084102;28;20778;-79
2024/02/15 02:00:14;;;;;;;19.92;7.70;;;;;;;9.60;100.00;100819.88;5076415;28;20423;-79
2024/02/15 02:02:47;;;;;;;18.73;7.57;;;;;;;9.56;100.00;100813.34;5076486;28;20434;-79
2024/02/15 02:05:17;;;;;;;16.98;7.20;;;;;;;9.55;100.00;100808.97;5078798;28;20927;-79
2024/02/15 02:07:50;;;;;;;18.00;7.40;;;;;;;9.54;100.00;100812.78;5080535;28;20437;-79
2024/02/15 02:10:24;;;;;;;17.40;7.40;;;;;;;9.56;100.00;100807.91;5076854;28;20441;-79
2024/02/15 02:12:52;;;;;;;16.98;7.00;;;;;;;9.67;100.00;100811.44;5078109;28;20452;-80
2024/02/15 02:15:20;;;;;;;22.00;8.77;;;;;;;9.56;100.00;100816.06;5079378;28;20422;-79
2024/02/15 02:17:54;;;;;;;22.15;9.30;;;;;;;9.54;100.00;100823.63;5081092;28;20462;-79
2024/02/15 02:20:29;;;;;;;23.02;9.32;;;;;;;9.70;100.00;100822.56;5077773;28;20737;-79
2024/02/15 02:23:08;;;;;;;25.00;9.68;;;;;;;9.64;100.00;100815.53;5076983;28;20426;-80
2024/02/15 02:25:37;;;;;;;24.92;9.82;;;;;;;9.66;100.00;100812.53;5092800;28;20431;-80
2024/02/15 02:28:07;;;;;;;26.05;9.73;;;;;;;9.58;100.00;100816.59;5081840;28;20422;-78
2024/02/15 02:30:36;;;;;;;24.63;9.65;;;;;;;9.53;100.00;100811.16;5078614;28;20433;-81
2024/02/15 02:33:17;;;;;;;27.77;9.85;;;;;;;9.52;100.00;100817.66;5079111;28;20414;-78
2024/02/15 02:35:50;;;;;;;24.67;10.20;;;;;;;9.58;100.00;100813.06;5077228;28;20776;-80
2024/02/15 02:38:19;;;;;;;23.63;9.88;;;;;;;9.72;100.00;100808.72;5073295;28;21057;-79
2024/02/15 02:40:54;;;;;;;25.05;9.65;;;;;;;9.61;100.00;100816.06;5079056;28;20430;-80
2024/02/15 02:43:27;;;;;;;23.15;9.70;;;;;;;9.72;100.00;100818.78;5080280;28;20427;-80
2024/02/15 02:45:55;;;;;;;22.42;9.80;;;;;;;9.64;100.00;100817.41;5075297;28;20806;-79
2024/02/15 02:48:28;;;;;;;22.42;9.77;;;;;;;9.62;100.00;100817.66;5078760;28;20422;-80
2024/02/15 02:51:02;;;;;;;26.20;9.97;;;;;;;9.66;100.00;100816.03;5077581;28;20907;-79
2024/02/15 02:53:35;;;;;;;29.67;11.05;;;;;;;9.64;100.00;100814.69;5077392;28;20415;-80
2024/02/15 02:56:10;;;;;;;25.40;10.50;;;;;;;9.67;100.00;100822.31;5076326;28;20427;-80
2024/02/15 02:58:43;;;;;;;27.45;10.73;;;;;;;9.70;100.00;100819.84;5078788;28;20429;-80
2024/02/15 03:01:17;;;;;;;24.13;10.40;;;;;;;9.67;100.00;100833.19;5078760;28;20423;-79
2024/02/15 03:03:51;;;;;;;29.15;10.50;;;;;;;9.64;100.00;100815.53;5076849;28;20430;-80
2024/02/15 03:06:25;;;;;;;27.50;10.23;;;;;;;9.62;100.00;100822.31;5074600;28;20449;-79
2024/02/15 03:08:54;;;;;;;27.80;9.73;;;;;;;9.59;100.00;100825.56;5077281;28;20412;-80
2024/02/15 03:11:28;;;;;;;25.20;9.95;;;;;;;9.70;100.00;100819.84;5074456;28;20427;-80
2024/02/15 03:13:58;;;;;;;29.52;10.48;;;;;;;9.71;100.00;100820.69;5076272;28;20427;-79
2024/02/15 03:16:31;;;;;;;28.85;11.10;;;;;;;9.67;100.00;100822.31;5076114;28;20420;-80
2024/02/15 03:19:04;;;;;;;29.97;12.10;;;;;;;9.61;100.00;100820.66;5077398;28;20454;-80
2024/02/15 03:21:32;;;;;;;26.90;11.40;;;;;;;9.60;100.00;100819.03;5076073;28;20439;-79
2024/02/15 03:24:01;;;;;;;32.47;12.32;;;;;;;9.73;100.00;100817.69;5076144;28;20428;-79
2024/02/15 03:26:38;;;;;;;31.40;11.77;;;;;;;9.78;100.00;100815.78;5075633;28;20426;-80
2024/02/15 03:29:11;;;;;;;33.15;12.05;;;;;;;9.66;100.00;100807.91;5075183;28;20431;-79
2024/02/15 03:31:39;;;;;;;36.65;12.18;;;;;;;9.64;100.00;100809.25;5078632;28;20403;-80
2024/02/15 03:34:14;;;;;;;31.60;11.77;;;;;;;9.68;100.00;100813.06;5078038;28;20423;-81
2024/02/15 03:36:51;;;;;;;32.17;11.80;;;;;;;9.72;100.00;100818.78;5084194;28;20516;-79
2024/02/15 03:39:25;;;;;;;29.10;10.98;;;;;;;9.70;100.00;100821.78;5082410;28;20414;-81
2024/02/15 03:41:59;;;;;;;29.55;11.10;;;;;;;9.68;100.00;100823.94;5075799;28;20418;-79
2024/02/15 03:44:33;;;;;;;27.20;10.45;;;;;;;9.68;100.00;100824.75;5074644;28;20433;-79
2024/02/15 03:47:06;;;;;;;26.40;10.45;;;;;;;9.81;100.00;100823.41;5075174;28;21115;-79
2024/02/15 03:49:39;;;;;;;29.85;10.88;;;;;;;9.74;100.00;100825.56;5078246;28;20413;-79
2024/02/15 03:52:12;;;;;;;23.98;9.93;;;;;;;9.83;100.00;100832.13;5077374;28;20406;-81
2024/02/15 03:54:46;;;;;;;22.30;8.25;;;;;;;9.86;100.00;100834.28;5080677;28;20906;-79
2024/02/15 03:57:20;;;;;;;21.17;8.07;;;;;;;9.79;100.00;100832.91;5077242;28;20428;-80
2024/02/15 03:59:50;;;;;;;21.70;8.52;;;;;;;9.76;100.00;100833.47;5082708;28;20419;-79
2024/02/15 04:02:26;;;;;;;22.13;9.03;;;;;;;9.73;100.00;100831.28;5078404;28;20426;-81
2024/02/15 04:04:59;;;;;;;19.90;8.20;;;;;;;9.75;100.00;100835.38;5075654;28;20573;-80
2024/02/15 04:07:32;;;;;;;21.92;8.38;;;;;;;9.76;100.00;100830.75;5091382;28;20424;-79
2024/02/15 04:10:07;;;;;;;20.73;8.35;;;;;;;9.74;100.00;100836.44;5071285;28;20419;-79
2024/02/15 04:12:42;;;;;;;22.63;8.50;;;;;;;9.73;100.00;100839.44;5076657;28;20440;-80
2024/02/15 04:15:17;;;;;;;23.05;8.63;;;;;;;9.78;100.00;100847.59;5082250;28;20492;-80
2024/02/15 04:17:55;;;;;;;23.10;8.50;;;;;;;9.74;100.00;100841.09;5078734;28;20432;-80
2024/02/15 04:20:29;;;;;;;23.60;8.50;;;;;;;9.79;100.00;100844.63;5080569;28;20424;-80
2024/02/15 04:22:59;;;;;;;20.13;7.75;;;;;;;9.82;100.00;100841.34;5075519;28;20502;-79
2024/02/15 04:25:28;;;;;;;24.65;8.18;;;;;;;9.79;100.00;100839.19;5080739;28;20428;-80
2024/02/15 04:28:03;;;;;;;20.67;7.85;;;;;;;9.81;100.00;100834.28;5090932;28;20422;-79
2024/02/15 04:30:38;;;;;;;19.85;7.57;;;;;;;9.95;100.00;100842.72;5093941;28;20931;-80
2024/02/15 04:33:12;;;;;;;20.73;7.60;;;;;;;9.86;100.00;100828.03;5089899;28;20912;-80
2024/02/15 04:35:40;;;;;;;22.70;7.57;;;;;;;9.84;100.00;100827.47;5072694;28;20948;-80
2024/02/15 04:38:13;;;;;;;17.85;6.85;;;;;;;9.94;100.00;100827.47;5091829;28;20427;-80
2024/02/15 04:40:47;;;;;;;18.95;7.25;;;;;;;9.86;100.00;100836.19;5078564;28;20418;-79
2024/02/15 04:43:22;;;;;;;17.60;7.00;;;;;;;9.83;100.00;100832.13;5081221;28;20430;-79
2024/02/15 04:45:55;;;;;;;17.95;7.05;;;;;;;9.93;100.00;100834.03;5076978;28;21074;-80
2024/02/15 04:48:29;;;;;;;20.10;7.50;;;;;;;9.92;100.00;100835.09;5075422;28;20871;-79
2024/02/15 04:50:59;;;;;;;22.90;7.80;;;;;;;9.90;100.00;100842.69;5074949;28;21040;-80
2024/02/15 04:53:32;;;;;;;23.47;8.57;;;;;;;9.95;100.00;100836.47;5076364;28;20423;-78
2024/02/15 04:56:11;;;;;;;25.58;9.35;;;;;;;9.90;100.00;100844.59;5077067;28;20420;-80
2024/02/15 04:58:47;;;;;;;26.88;9.00;;;;;;;9.83;100.00;100848.44;5100045;28;20433;-79
2024/02/15 05:01:20;;;;;;;27.20;9.57;;;;;;;9.85;100.00;100859.81;5078410;28;20424;-79
2024/02/15 05:03:48;;;;;;;25.90;9.65;;;;;;;9.97;100.00;100848.69;5096002;28;20419;-79
2024/02/15 05:06:17;;;;;;;29.40;9.93;;;;;;;9.96;100.00;100859.84;5099366;28;21087;-80
2024/02/15 05:08:50;;;;;;;27.70;10.15;;;;;;;10.06;100.00;100859.03;5094095;28;20418;-79
2024/02/15 05:11:24;;;;;;;30.35;10.48;;;;;;;9.97;100.00;100864.19;5097950;28;20630;-79
2024/02/15 05:13:59;;;;;;;27.70;10.65;;;;;;;9.99;100.00;100876.41;5081700;28;21120;-78
2024/02/15 05:16:27;;;;;;;28.87;10.97;;;;;;;9.99;100.00;100872.91;5094937;28;20412;-79
2024/02/15 05:19:01;;;;;;;27.10;10.20;;;;;;;10.03;100.00;100869.34;5095883;28;20419;-81
2024/02/15 05:21:30;;;;;;;28.52;11.05;;;;;;;10.01;100.00;100870.72;5080708;28;20427;-80
2024/02/15 05:24:03;;;;;;;30.70;11.20;;;;;;;9.94;100.00;100862.81;5098116;28;20437;-79
2024/02/15 05:26:36;;;;;;;28.80;10.73;;;;;;;9.93;100.00;100871.25;5102230;27;20419;-79
2024/02/15 05:29:12;;;;;;;31.05;11.10;;;;;;;9.96;100.00;100866.09;5101076;27;20440;-80
2024/02/15 05:31:40;;;;;;;31.98;11.00;;;;;;;9.91;100.00;100866.09;5096658;28;20406;-79
2024/02/15 05:34:13;;;;;;;35.17;11.77;;;;;;;10.02;100.00;100870.44;5102719;27;20425;-80
2024/02/15 05:36:48;;;;;;;31.55;11.32;;;;;;;10.01;100.00;100865.28;5088089;27;20424;-79
2024/02/15 05:39:22;;;;;;;29.35;10.90;;;;;;;9.98;100.00;100861.19;5096074;27;20428;-79
2024/02/15 05:41:50;;;;;;;30.57;11.17;;;;;;;9.97;100.00;100862.28;5103200;27;20413;-79
2024/02/15 05:44:25;;;;;;;30.33;10.70;;;;;;;10.05;100.00;100860.91;5083155;28;20738;-80
2024/02/15 05:46:58;;;;;;;32.33;11.35;;;;;;;10.02;100.00;100858.75;5096743;28;20406;-79
2024/02/15 05:49:32;;;;;;;28.52;10.90;;;;;;;10.09;100.00;100859.28;5099296;27;20418;-79
2024/02/15 05:52:06;;;;;;;31.17;10.55;;;;;;;10.07;100.00;100871.53;5083781;28;20416;-78
2024/02/15 05:54:34;;;;;;;32.37;11.27;;;;;;;10.09;100.00;100859.28;5098764;27;20414;-79
2024/02/15 05:57:02;;;;;;;30.65;10.73;;;;;;;10.07;100.00;100857.94;5098808;27;20417;-79
2024/02/15 05:59:37;;;;;;;30.65;11.38;;;;;;;9.98;100.00;100857.66;5081881;28;20431;-79
2024/02/15 06:02:06;;;;;;;31.40;10.55;;;;;;;9.94;100.00;100854.66;5111090;27;20420;-79
2024/02/15 06:04:42;;;;;;;31.30;10.82;;;;;;;9.92;100.00;100851.41;5096285;27;20439;-79
2024/02/15 06:07:11;;;;;;;32.53;10.93;;;;;;;10.13;100.00;100849.50;5090323;28;20420;-79
2024/02/15 06:09:44;;;;;;;32.90;10.85;;;;;;;10.07;100.00;100858.75;5088991;28;20433;-80
2024/02/15 06:12:17;;;;;;;27.77;10.57;;;;;;;9.99;100.00;100862.03;5099614;27;20417;-79
2024/02/15 06:14:52;;;;;;;29.15;10.68;;;;;;;10.00;100.00;100864.47;5098331;27;20417;-79
2024/02/15 06:17:20;;;;;;;31.43;11.00;;;;;;;10.00;100.00;100855.50;5102531;27;20510;-80
2024/02/15 06:19:48;;;;;;;28.48;10.20;;;;;;;9.97;100.00;100856.03;5103321;27;20430;-80
2024/02/15 06:22:22;;;;;;;33.90;11.57;;;;;;;10.02;100.00;100845.16;5099330;28;20445;-80
2024/02/15 06:24:50;;;;;;;31.35;11.25;;;;;;;9.98;100.00;100863.91;5098317;28;20435;-80
2024/02/15 06:27:19;;;;;;;36.33;12.05;;;;;;;10.15;100.00;100870.97;5095583;27;20418;-79
2024/02/15 06:41:13;;;;;;;35.80;12.07;;;;;;;10.16;100.00;100868.03;5112678;27;20426;-79
2024/02/15 06:43:46;;;;;;;32.45;11.77;;;;;;;10.07;100.00;100871.53;5094531;28;20422;-79
2024/02/15 06:46:21;;;;;;;36.65;12.18;;;;;;;10.04;100.00;100876.44;5103738;28;20414;-80
2024/02/15 06:48:54;;;;;;;39.93;12.53;;;;;;;10.06;100.00;100875.34;5097708;27;20422;-79
2024/02/15 06:51:28;;;;;;;37.60;12.15;;;;;;;10.09;100.00;100881.03;5096025;28;20421;-79
2024/02/15 06:54:02;;;;;;;34.83;11.57;;;;;;;10.08;100.00;100882.16;5099744;27;21392;-80
2024/02/15 06:56:38;;;;;;;35.57;12.07;;;;;;;10.08;100.00;100873.16;5097224;27;20421;-79
2024/02/15 06:59:14;;;;;;;34.30;11.82;;;;;;;10.19;100.00;100880.22;5111496;27;20422;-79
2024/02/15 07:01:48;;;;;;;34.22;11.20;;;;;;;10.08;100.00;100884.03;5097050;27;20420;-81
2024/02/15 07:04:25;;;;;;;37.42;11.68;;;;;;;10.09;100.00;100882.97;5093731;28;20418;-79
2024/02/15 07:06:59;;;;;;;33.03;11.57;;;;;;;10.08;100.00;100879.44;5093468;27;20436;-79
2024/02/15 07:09:32;;;;;;;35.25;11.63;;;;;;;10.25;100.00;100887.31;5100353;27;21257;-79
2024/02/15 07:12:06;;;;;;;36.15;11.85;;;;;;;10.21;100.00;100889.75;5111225;27;21803;-79
2024/02/15 07:14:39;;;;;;;32.97;11.07;;;;;;;10.14;100.00;100885.69;5100986;28;20412;-79
2024/02/15 07:17:14;;;;;;;34.75;11.82;;;;;;;10.11;100.00;100883.50;5101554;27;20426;-79
2024/02/15 07:19:49;;;;;;;36.58;11.75;;;;;;;10.18;100.00;100882.16;5076308;28;20426;-80
2024/02/15 07:22:23;;;;;;;36.85;11.35;;;;;;;10.17;100.00;100879.69;5086060;28;20421;-80
2024/02/15 07:24:56;;;;;;;34.85;12.18;;;;;;;10.21;100.00;100878.88;5101706;28;20923;-81
2024/02/15 07:27:25;;;;;;;34.63;11.55;;;;;;;10.16;100.00;100878.06;5101317;27;20959;-80
2024/02/15 07:29:54;;;;;;;38.65;11.88;;;;;;;10.17;100.00;100887.84;5070605;28;20779;-79
2024/02/15 07:32:28;;;;;;;35.65;11.88;;;;;;;10.16;100.00;100887.06;5091073;28;20434;-80
2024/02/15 07:34:57;;;;;;;37.10;12.13;;;;;;;10.25;100.00;100894.63;5091596;28;20449;-80
2024/02/15 07:37:26;;;;;;;34.17;11.48;;;;;;;10.21;100.00;100887.03;5097340;27;20448;-80
2024/02/15 07:39:59;;;;;;;35.50;12.10;;;;;;;10.16;100.00;100894.38;5093990;27;20518;-79
2024/02/15 07:42:32;;;;;;;39.20;12.57;;;;;;;10.17;100.00;100891.38;5095269;27;20437;-80
2024/02/15 07:45:06;;;;;;;33.97;11.95;;;;;;;10.11;100.00;100892.47;5093170;27;20425;-80
2024/02/15 07:47:41;;;;;;;36.87;12.07;;;;;;;10.26;100.00;100904.44;5092786;27;20420;-79
2024/02/15 07:50:10;;;;;;;34.53;11.57;;;;;;;10.28;100.00;100896.84;5107213;27;20489;-81
2024/02/15 07:52:43;;;;;;;39.13;11.60;;;;;;;10.21;100.00;100895.19;5100921;27;20437;-79
2024/02/15 07:55:16;;;;;;;32.07;11.63;;;;;;;10.23;100.00;100899.56;5096881;27;20555;-81
2024/02/15 07:57:49;;;;;;;34.55;11.88;;;;;;;10.26;100.00;100897.13;5104432;27;20433;-78
2024/02/15 08:00:22;;;;;;;36.28;11.93;;;;;;;10.28;100.00;100899.56;5090373;27;20463;-79
2024/02/15 08:02:59;;;;;;;36.60;12.27;;;;;;;10.29;100.00;100903.88;5091977;28;21059;-80
2024/02/15 08:05:27;;;;;;;32.85;11.68;;;;;;;10.42;100.00;100899.84;5091480;28;20429;-80
2024/02/15 08:08:00;;;;;;;34.42;11.65;;;;;;;10.31;100.00;100902.53;5107704;27;20445;-79
2024/02/15 08:10:28;;;;;;;31.85;11.82;;;;;;;10.37;100.00;100898.75;5092429;28;20412;-80
2024/02/15 08:13:01;;;;;;;32.00;11.63;;;;;;;10.40;100.00;100900.13;5094680;28;20428;-81
2024/02/15 08:15:35;;;;;;;34.58;11.57;;;;;;;10.40;100.00;100902.00;5091548;28;21135;-79
2024/02/15 08:18:12;;;;;;;31.90;11.70;;;;;;;10.30;100.00;100906.38;5091867;28;20441;-79
2024/02/15 08:20:46;;;;;;;33.05;11.70;;;;;;;10.43;100.00;100910.47;5106126;27;20430;-79
2024/02/15 08:23:19;;;;;;;31.85;10.88;;;;;;;10.36;100.00;100907.19;5087878;28;20768;-80
2024/02/15 08:25:47;;;;;;;31.35;11.23;;;;;;;10.38;100.00;100902.28;5090762;28;20425;-81
2024/02/15 08:28:15;;;;;;;34.92;11.55;;;;;;;10.44;100.00;100903.94;5110388;27;20425;-80
2024/02/15 08:30:49;;;;;;;29.97;11.37;;;;;;;10.37;100.00;100893.31;5100714;28;21044;-79
2024/02/15 08:33:24;;;;;;;38.35;16.60;;;;;;;10.41;100.00;100898.22;5088455;28;20418;-80
2024/02/15 08:35:54;;;;;;;33.60;11.65;;;;;;;10.41;100.00;100892.78;5087845;27;20419;-80
2024/02/15 08:38:23;;;;;;;31.27;10.95;;;;;;;10.44;100.00;100886.78;5053910;27;21514;-79
2024/02/15 08:40:56;;;;;;;31.77;11.15;;;;;;;10.40;100.00;100893.84;5076664;28;20421;-80
2024/02/15 08:43:29;;;;;;;29.52;10.63;;;;;;;10.38;100.00;100892.25;5070295;28;20427;-78
2024/02/15 08:46:02;;;;;;;29.42;11.35;;;;;;;10.46;100.00;100898.22;5072368;28;20824;-78
2024/02/15 08:48:32;;;;;;;33.15;11.20;;;;;;;10.44;100.00;100903.94;5066619;28;20431;-80
2024/02/15 08:51:00;;;;;;;30.43;11.20;;;;;;;10.48;100.00;100901.47;5069757;28;20443;-78
2024/02/15 08:53:28;;;;;;;28.40;10.77;;;;;;;10.65;100.00;100909.34;5071203;28;20427;-79
2024/02/15 08:56:02;;;;;;;27.00;11.10;;;;;;;10.44;100.00;100898.50;5080458;28;20539;-78
2024/02/15 08:58:36;;;;;;;29.83;10.50;;;;;;;10.52;100.00;100897.09;5075917;27;20885;-79
2024/02/15 09:01:04;;;;;;;28.00;10.70;;;;;;;10.59;100.00;100894.09;5086600;28;20436;-79
2024/02/15 09:03:34;;;;;;;29.50;9.93;;;;;;;10.63;100.00;100892.47;5075712;28;20443;-80
2024/02/15 09:06:07;;;;;;;29.30;10.55;;;;;;;10.65;100.00;100893.84;5077374;27;20432;-78
2024/02/15 09:08:35;;;;;;;26.48;10.32;;;;;;;10.76;100.00;100891.06;5072695;28;20425;-79
2024/02/15 09:11:12;;;;;;;22.67;9.53;;;;;;;10.75;100.00;100890.28;5075222;28;20428;-79
2024/02/15 09:13:45;;;;;;;26.45;9.68;;;;;;;10.88;100.00;100899.75;5074102;27;20439;-78
2024/02/15 09:16:20;;;;;;;25.08;9.90;;;;;;;10.93;100.00;100893.50;5079284;28;20434;-78
2024/02/15 09:18:55;;;;;;;25.40;10.07;;;;;;;10.86;100.00;100878.25;5079064;27;20416;-79
2024/02/15 09:21:25;;;;;;;24.23;9.13;;;;;;;10.95;100.00;100881.25;5073467;28;20448;-78
2024/02/15 09:23:58;;;;;;;22.77;9.30;;;;;;;11.06;100.00;100882.84;5075186;28;20432;-79
2024/02/15 09:26:27;;;;;;;21.20;9.07;;;;;;;11.10;100.00;100876.81;5076987;27;20432;-79
2024/02/15 09:28:56;;;;;;;22.08;9.45;;;;;;;11.17;100.00;100882.78;5077799;27;21393;-78
2024/02/15 09:31:29;;;;;;;23.58;9.70;;;;;;;11.00;100.00;100888.56;5076769;27;20432;-78
2024/02/15 09:34:05;;;;;;;22.30;9.47;;;;;;;11.14;100.00;100886.88;5077625;28;20424;-79
2024/02/15 09:36:39;;;;;;;23.83;9.88;;;;;;;11.04;100.00;100881.47;5070777;28;20436;-78
2024/02/15 09:39:13;;;;;;;20.73;8.83;;;;;;;11.29;100.00;100879.75;5095939;27;20518;-78
2024/02/15 09:41:53;;;;;;;22.45;8.27;;;;;;;11.30;100.00;100882.19;5077293;27;20435;-79
2024/02/15 09:44:28;;;;;;;20.47;8.87;;;;;;;11.20;100.00;100884.97;5080215;27;20432;-79
2024/02/15 09:47:04;;;;;;;20.48;8.70;;;;;;;11.30;100.00;100884.09;5077709;28;21711;-79
2024/02/15 09:49:41;;;;;;;21.42;8.77;;;;;;;11.33;100.00;100891.72;5076984;27;20913;-79
2024/02/15 09:52:11;;;;;;;21.40;8.48;;;;;;;11.51;100.00;100891.06;5077964;28;20424;-78
2024/02/15 09:54:45;;;;;;;17.52;8.07;;;;;;;11.40;100.00;100895.75;5084612;28;20429;-79
2024/02/15 09:57:20;;;;;;;20.80;8.00;;;;;;;11.51;100.00;100890.25;5077314;27;21069;-79
2024/02/15 09:59:53;;;;;;;17.27;7.95;;;;;;;11.64;100.00;100884.19;5070130;27;21186;-78
2024/02/15 10:02:27;;;;;;;16.55;7.55;;;;;;;11.67;100.00;100886.34;5074593;28;20439;-78
2024/02/15 10:05:02;;;;;;;18.83;7.57;;;;;;;11.64;100.00;100891.53;5080604;27;20495;-79
2024/02/15 10:07:30;;;;;;;16.48;7.30;;;;;;;11.58;100.00;100897.00;5076440;27;20443;-78
2024/02/15 10:10:16;;;;;;;18.10;7.57;;;;;;;11.41;100.00;100891.13;5080497;27;20420;-78
2024/02/15 10:12:51;;;;;;;17.08;7.53;;;;;;;11.45;100.00;100896.81;5081907;28;20432;-80
2024/02/15 10:15:30;;;;;;;16.52;7.50;;;;;;;11.57;100.00;100897.31;5078192;28;20422;-79
2024/02/15 10:17:59;;;;;;;18.48;7.43;;;;;;;11.71;100.00;100894.75;5073109;27;21678;-78
2024/02/15 10:20:37;;;;;;;16.67;7.85;;;;;;;11.70;100.00;100891.22;5094134;27;20435;-78
2024/02/15 10:23:11;;;;;;;17.10;7.78;;;;;;;11.46;100.00;100901.19;5075253;28;20436;-79
2024/02/15 10:25:45;;;;;;;16.67;7.97;;;;;;;11.44;100.00;100892.47;5077971;28;20486;-78
2024/02/15 10:28:23;;;;;;;15.20;7.53;;;;;;;11.49;100.00;100897.88;5070762;28;20911;-79
2024/02/15 10:30:56;;;;;;;14.38;7.32;;;;;;;11.43;100.00;100896.31;5080284;28;20447;-78
2024/02/15 10:33:30;;;;;;;14.97;7.30;;;;;;;11.41;100.00;100899.31;5072897;27;20431;-78
2024/02/15 10:36:09;;;;;;;14.97;7.90;;;;;;;11.44;100.00;100903.38;5079469;27;20541;-78
2024/02/15 10:38:37;;;;;;;18.33;7.95;;;;;;;11.34;100.00;100894.16;5060231;28;21780;-81
2024/02/15 10:41:11;;;;;;;14.98;7.90;;;;;;;11.40;100.00;100897.66;5073465;28;20904;-78
2024/02/15 10:43:47;;;;;;;16.00;7.38;;;;;;;11.39;100.00;100896.03;5081690;27;20478;-79
2024/02/15 10:46:21;;;;;;;17.85;7.70;;;;;;;11.33;100.00;100897.16;5076751;28;20432;-79
2024/02/15 10:48:54;;;;;;;17.50;8.18;;;;;;;11.27;100.00;100892.81;5070284;28;20424;-79
2024/02/15 10:51:25;;;;;;;17.13;7.70;;;;;;;11.47;100.00;100886.47;5073557;28;20863;-79
2024/02/15 10:54:04;;;;;;;16.65;8.02;;;;;;;11.46;100.00;100901.19;5074524;27;21135;-79
2024/02/15 10:56:42;;;;;;;18.27;8.18;;;;;;;11.36;100.00;100889.22;5074882;28;20431;-79
2024/02/15 10:59:17;;;;;;;16.35;7.72;;;;;;;11.41;100.00;100899.31;5078380;28;20425;-79
2024/02/15 11:01:55;;;;;;;16.05;8.48;;;;;;;11.40;100.00;100889.50;5078669;28;20447;-78
2024/02/15 11:04:35;;;;;;;17.50;8.70;;;;;;;11.29;100.00;100891.44;5085495;27;20416;-80
2024/02/15 11:07:13;;;;;;;20.17;9.48;;;;;;;11.27;100.00;100884.66;5070736;28;20907;-78
2024/02/15 11:09:46;;;;;;;19.83;10.00;;;;;;;11.36;100.00;100891.16;5068179;28;20446;-78
2024/02/15 11:12:15;;;;;;;21.10;9.40;;;;;;;11.38;100.00;100886.25;5064008;28;20439;-79
2024/02/15 11:14:45;;;;;;;21.48;10.05;;;;;;;11.36;100.00;100881.06;5071157;27;20856;-78
2024/02/15 11:17:50;;;;;;;20.38;10.57;;;;;;;11.50;100.00;100883.16;5075157;28;20912;-78
2024/02/15 11:20:49;;;;;;;25.40;10.98;;;;;;;11.51;100.00;100882.09;5087458;27;20431;-79
2024/02/15 11:23:30;;;;;;;23.52;10.45;;;;;;;11.54;100.00;100884.25;5081617;28;20432;-79
2024/02/15 11:26:04;;;;;;;27.63;10.82;;;;;;;11.54;100.00;100879.59;5078060;28;20412;-79
2024/02/15 11:28:41;;;;;;;27.50;11.10;;;;;;;11.65;100.00;100882.28;5080698;28;20439;-78
2024/02/15 11:31:12;;;;;;;24.17;11.10;;;;;;;11.72;100.00;100869.13;5074409;28;20420;-78
2024/02/15 11:33:40;;;;;;;21.30;11.23;;;;;;;11.74;100.00;100865.03;5064773;28;20951;-79
2024/02/15 11:36:14;;;;;;;26.05;11.38;;;;;;;11.77;100.00;100860.94;5076486;27;20490;-78
2024/02/15 11:38:44;;;;;;;26.47;12.20;;;;;;;11.94;100.00;100862.44;5066359;28;20435;-78
2024/02/15 11:41:20;;;;;;;25.27;11.70;;;;;;;11.84;100.00;100861.41;5077738;27;20450;-80
2024/02/15 11:43:57;;;;;;;27.55;12.20;;;;;;;11.95;100.00;100858.66;5072020;28;20440;-80
2024/02/15 11:46:30;;;;;;;27.40;11.90;;;;;;;11.91;100.00;100852.91;5089477;27;20431;-79